Time;durP1;ratioP1;P1;durP2;ratioP2;P2;SDS_P1;SDS_P2;PMS_P1;PMS_P2;Temp;Humidity;BMP_temperature;BMP_pressure;BME280_temperature;BME280_humidity;BME280_pressure;Samples;Min_cycle;Max_cycle;Signal;HPM_P1;HPM_P2
2022/05/14 05:03:28;;;;;;;;;;;;;;;20.49;66.23;97249.78;4184932;27;1429302;-79
2022/05/14 05:05:30;;;;;;;;;;;;;;;20.72;66.04;97254.16;4205733;28;5757;-79
2022/05/14 05:07:36;;;;;;;;;;;;;;;20.89;65.70;97251.44;4202868;28;5719;-79
2022/05/14 05:09:39;;;;;;;;;;;;;;;21.07;65.17;97250.34;4198458;28;5730;-80
2022/05/14 05:11:43;;;;;;;;;;;;;;;21.19;65.20;97253.72;4198080;28;5822;-78
2022/05/14 05:13:46;;;;;;;;;;;;;;;21.31;64.63;97251.78;4211652;28;5694;-79
2022/05/14 05:15:52;;;;;;;;;;;;;;;21.40;64.57;97250.25;4214556;28;5699;-80
2022/05/14 05:17:56;;;;;;;;;;;;;;;21.48;64.40;97247.13;4209995;28;5639;-80
2022/05/14 05:20:00;;;;;;;;;;;;;;;21.55;64.63;97248.81;4198582;28;6400;-80
2022/05/14 05:22:04;;;;;;;;;;;;;;;21.58;64.35;97248.31;4203990;28;5804;-79
2022/05/14 05:24:09;;;;;;;;;;;;;;;21.63;63.97;97248.34;4203421;28;5723;-79
2022/05/14 05:26:12;;;;;;;;;;;;;;;21.68;63.75;97249.22;4198327;28;5786;-80
2022/05/14 05:28:15;;;;;;;;;;;;;;;21.72;64.22;97252.22;4201765;28;5709;-79
2022/05/14 05:30:18;;;;;;;;;;;;;;;21.73;63.75;97260.03;4205823;28;5701;-79
2022/05/14 05:32:21;;;;;;;;;;;;;;;21.73;63.92;97261.91;4213703;28;5699;-80
2022/05/14 05:34:25;;;;;;;;;;;;;;;21.73;63.67;97260.03;4206760;28;6405;-80
2022/05/14 05:36:30;;;;;;;;;;;;;;;21.74;63.96;97267.03;4197933;28;7721;-81
2022/05/14 05:38:33;;;;;;;;;;;;;;;21.74;63.80;97271.59;4201695;28;5731;-80
2022/05/14 05:40:37;;;;;;;;;;;;;;;21.74;63.42;97261.66;4197768;28;5830;-80
2022/05/14 05:42:40;;;;;;;;;;;;;;;21.76;63.64;97267.63;4218581;28;5830;-80
2022/05/14 05:44:43;;;;;;;;;;;;;;;21.82;63.16;97260.41;4209046;28;5690;-79
2022/05/14 05:46:47;;;;;;;;;;;;;;;21.90;63.08;97259.16;4198182;28;5813;-80
2022/05/14 05:48:50;;;;;;;;;;;;;;;22.00;62.82;97259.25;4197501;28;5719;-80
2022/05/14 05:50:53;;;;;;;;;;;;;;;22.10;62.90;97272.03;4214464;28;5797;-81
2022/05/14 05:52:58;;;;;;;;;;;;;;;22.19;62.40;97267.78;4215901;28;5776;-81
2022/05/14 05:57:29;;;;;;;;;;;;;;;22.33;62.18;97263.63;4202180;28;6420;-80
2022/05/14 05:59:32;;;;;;;;;;;;;;;22.41;61.81;97265.00;4198162;28;5476;-80
2022/05/14 06:01:36;;;;;;;;;;;;;;;22.44;61.43;97259.94;4202082;28;5810;-80
2022/05/14 06:03:39;;;;;;;;;;;;;;;22.51;61.28;97259.69;4173959;28;5891;-80
2022/05/14 06:05:42;;;;;;;;;;;;;;;22.56;61.38;97265.16;4170298;28;5797;-80
2022/05/14 06:07:46;;;;;;;;;;;;;;;22.64;60.87;97264.66;4163260;28;5924;-80
2022/05/14 06:09:50;;;;;;;;;;;;;;;22.70;60.88;97274.41;4180325;28;5833;-80
2022/05/14 06:11:54;;;;;;;;;;;;;;;22.76;61.04;97277.94;4170070;28;5737;-81
2022/05/14 06:13:57;;;;;;;;;;;;;;;22.83;60.66;97273.13;4161864;28;5944;-80
2022/05/14 06:16:01;;;;;;;;;;;;;;;22.86;60.27;97276.16;4165737;28;5085;-80
2022/05/14 06:18:05;;;;;;;;;;;;;;;22.90;60.67;97268.38;4170080;28;5744;-80
2022/05/14 06:20:11;;;;;;;;;;;;;;;22.92;60.38;97271.63;4171370;28;5780;-80
2022/05/14 06:22:15;;;;;;;;;;;;;;;22.98;60.21;97275.13;4161004;28;5725;-80
2022/05/14 06:24:18;;;;;;;;;;;;;;;23.01;59.85;97275.44;4160918;28;5881;-80
2022/05/14 06:26:22;;;;;;;;;;;;;;;23.07;59.68;97274.41;4162763;28;6556;-80
2022/05/14 06:28:26;;;;;;;;;;;;;;;23.10;59.81;97276.56;4161962;28;5953;-79
2022/05/14 06:30:30;;;;;;;;;;;;;;;23.15;59.42;97273.09;4152715;28;5865;-80
2022/05/14 06:32:36;;;;;;;;;;;;;;;23.21;58.98;97280.13;4150383;28;7790;-80
2022/05/14 06:34:39;;;;;;;;;;;;;;;23.26;59.14;97282.06;4160605;28;5838;-80
2022/05/14 06:36:43;;;;;;;;;;;;;;;23.28;59.24;97286.09;4166935;28;5876;-79
2022/05/14 06:38:46;;;;;;;;;;;;;;;23.32;58.59;97287.19;4157724;28;5839;-81
2022/05/14 06:40:49;;;;;;;;;;;;;;;23.38;58.98;97285.34;4165364;28;6552;-81
2022/05/14 06:42:54;;;;;;;;;;;;;;;23.41;58.47;97282.13;4166750;28;5895;-80
2022/05/14 06:44:59;;;;;;;;;;;;;;;23.42;58.25;97281.84;4167123;28;5865;-80
2022/05/14 06:47:04;;;;;;;;;;;;;;;23.41;58.26;97274.03;4166888;28;5824;-80
2022/05/14 06:49:13;;;;;;;;;;;;;;;23.39;58.02;97278.88;4167176;28;6573;-81
2022/05/14 06:51:20;;;;;;;;;;;;;;;23.38;58.28;97286.16;4166738;28;5831;-80
2022/05/14 06:53:24;;;;;;;;;;;;;;;23.38;57.81;97274.56;4166414;28;5843;-80
2022/05/14 06:55:32;;;;;;;;;;;;;;;23.39;57.90;97281.56;4166714;28;5831;-80
2022/05/14 06:57:35;;;;;;;;;;;;;;;23.38;57.79;97285.34;4166698;28;5839;-81
2022/05/14 06:59:40;;;;;;;;;;;;;;;23.33;57.54;97288.00;4166565;28;5957;-80
2022/05/14 07:01:45;;;;;;;;;;;;;;;23.30;57.39;97288.53;4167477;28;5874;-80
2022/05/14 07:08:32;;;;;;;;;;;;;;;23.09;57.81;97280.34;4185242;28;6501;-81
2022/05/14 07:10:35;;;;;;;;;;;;;;;23.05;57.79;97281.13;4185668;28;5708;-80
2022/05/14 07:12:38;;;;;;;;;;;;;;;23.06;57.54;97274.66;4185538;28;5711;-81
2022/05/14 07:14:43;;;;;;;;;;;;;;;23.05;57.23;97271.16;4185218;28;5720;-81
2022/05/14 07:16:48;;;;;;;;;;;;;;;23.05;57.38;97264.94;4185404;28;5841;-81
2022/05/14 07:18:51;;;;;;;;;;;;;;;23.02;57.41;97273.56;4185876;28;5084;-80
2022/05/14 07:20:55;;;;;;;;;;;;;;;22.99;57.31;97272.22;4184332;28;6351;-80
2022/05/14 07:22:58;;;;;;;;;;;;;;;22.99;57.21;97276.75;4185188;28;5810;-81
2022/05/14 07:25:02;;;;;;;;;;;;;;;22.90;56.85;97281.84;4185701;28;7290;-81
2022/05/14 07:27:10;;;;;;;;;;;;;;;22.87;56.84;97277.78;4185806;28;5702;-80
2022/05/14 07:29:16;;;;;;;;;;;;;;;22.90;57.09;97287.25;4184018;28;5645;-81
2022/05/14 07:31:20;;;;;;;;;;;;;;;22.88;57.32;97286.69;4185548;28;5714;-80
2022/05/14 07:33:23;;;;;;;;;;;;;;;22.87;57.26;97285.84;4185574;28;5762;-81
2022/05/14 07:35:27;;;;;;;;;;;;;;;22.87;56.68;97285.03;4183970;28;5761;-80
2022/05/14 07:37:33;;;;;;;;;;;;;;;22.88;56.87;97284.81;4190247;28;5702;-80
2022/05/14 07:39:42;;;;;;;;;;;;;;;22.90;57.03;97281.84;4201521;28;5336;-65
2022/05/14 07:41:48;;;;;;;;;;;;;;;22.91;56.95;97286.97;4200363;28;5627;-71
2022/05/14 07:43:55;;;;;;;;;;;;;;;22.87;56.86;97285.03;4200352;28;5631;-66
2022/05/14 07:46:03;;;;;;;;;;;;;;;22.84;57.20;97277.50;4197564;28;5727;-66
2022/05/14 07:48:12;;;;;;;;;;;;;;;22.82;57.12;97276.91;4200862;28;5706;-66
2022/05/14 07:50:16;;;;;;;;;;;;;;;22.82;57.21;97279.59;4201524;28;5706;-66
2022/05/14 07:52:20;;;;;;;;;;;;;;;22.83;57.00;97273.13;4201222;28;5693;-65
2022/05/14 07:54:24;;;;;;;;;;;;;;;22.82;56.95;97275.03;4199322;28;5744;-66
2022/05/14 07:56:27;;;;;;;;;;;;;;;22.82;56.95;97276.91;4184813;28;5735;-66
2022/05/14 07:58:30;;;;;;;;;;;;;;;22.79;56.90;97264.78;4184972;28;5711;-66
2022/05/14 08:00:34;;;;;;;;;;;;;;;22.77;56.92;97263.41;4185371;28;6263;-66
2022/05/14 08:02:39;;;;;;;;;;;;;;;22.74;57.18;97263.91;4194008;28;5812;-66
2022/05/14 08:04:44;;;;;;;;;;;;;;;22.72;57.29;97266.88;4199918;28;6486;-66
2022/05/14 08:06:47;;;;;;;;;;;;;;;22.65;57.26;97264.41;4184689;28;5840;-66
2022/05/14 08:08:51;;;;;;;;;;;;;;;22.64;56.77;97264.66;4194230;28;6361;-66
2022/05/14 08:10:57;;;;;;;;;;;;;;;22.61;57.06;97265.16;4201040;28;6371;-67
2022/05/14 08:13:01;;;;;;;;;;;;;;;22.56;56.88;97268.66;4201238;28;5694;-66
2022/05/14 08:15:04;;;;;;;;;;;;;;;22.50;56.85;97272.38;4201252;28;5682;-67
2022/05/14 08:17:07;;;;;;;;;;;;;;;22.45;57.14;97266.94;4199967;28;5777;-66
2022/05/14 08:19:10;;;;;;;;;;;;;;;22.42;56.93;97266.63;4200875;28;6383;-66
2022/05/14 08:25:57;;;;;;;;;;;;;;;22.48;56.79;97261.03;4183910;28;5801;-66
2022/05/14 08:28:00;;;;;;;;;;;;;;;22.49;56.64;97261.84;4190421;28;7772;-66
2022/05/14 08:30:03;;;;;;;;;;;;;;;22.51;56.92;97255.13;4188342;28;6525;-66
2022/05/14 08:32:07;;;;;;;;;;;;;;;22.51;56.65;97257.81;4183747;28;6542;-67
2022/05/14 08:34:10;;;;;;;;;;;;;;;22.56;56.59;97257.88;4186771;28;5804;-67
2022/05/14 08:36:14;;;;;;;;;;;;;;;22.61;56.92;97260.59;4183329;28;5773;-67
2022/05/14 08:38:19;;;;;;;;;;;;;;;22.65;56.87;97259.03;4183159;28;5732;-67
2022/05/14 08:40:26;;;;;;;;;;;;;;;22.70;56.93;97260.94;4181584;28;5610;-67
2022/05/14 08:42:34;;;;;;;;;;;;;;;22.72;56.92;97258.78;4180154;28;5764;-67
2022/05/14 08:44:40;;;;;;;;;;;;;;;22.73;56.95;97256.91;4181552;28;5945;-67
2022/05/14 08:46:44;;;;;;;;;;;;;;;22.73;56.54;97259.59;4193757;28;5804;-66
2022/05/14 08:48:50;;;;;;;;;;;;;;;22.74;56.78;97258.53;4196201;28;5730;-67
2022/05/14 08:50:58;;;;;;;;;;;;;;;22.73;56.69;97256.91;4181349;28;6541;-67
2022/05/14 08:53:05;;;;;;;;;;;;;;;22.73;56.20;97265.78;4184492;28;6509;-64
2022/05/14 08:55:13;;;;;;;;;;;;;;;22.76;56.17;97267.16;4195046;28;5796;-64
2022/05/14 08:57:23;;;;;;;;;;;;;;;22.75;56.16;97260.94;4183172;28;5956;-65
2022/05/14 08:59:41;;;;;;;;;;;;;;;22.78;56.48;97270.41;4181062;28;5817;-65
2022/05/14 09:01:46;;;;;;;;;;;;;;;22.80;56.45;97269.09;4178725;28;5764;-64
2022/05/14 09:03:50;;;;;;;;;;;;;;;22.83;56.49;97273.13;4187540;28;5810;-64
2022/05/14 09:05:55;;;;;;;;;;;;;;;22.83;56.06;97267.75;4189212;28;5805;-65
2022/05/14 09:07:58;;;;;;;;;;;;;;;22.83;56.40;97273.97;4197705;28;5840;-64
2022/05/14 09:10:08;;;;;;;;;;;;;;;22.82;56.20;97272.34;4197765;28;5793;-65
2022/05/14 09:12:16;;;;;;;;;;;;;;;22.82;56.37;97261.53;4180620;28;5833;-65
2022/05/14 09:14:22;;;;;;;;;;;;;;;22.84;56.24;97262.13;4185409;28;5800;-64
2022/05/14 09:16:30;;;;;;;;;;;;;;;22.85;56.32;97258.34;4196957;28;5780;-65
2022/05/14 09:18:44;;;;;;;;;;;;;;;22.85;56.25;97263.75;4193963;28;5789;-65
2022/05/14 09:20:50;;;;;;;;;;;;;;;22.86;55.93;97261.84;4197818;28;5923;-64
2022/05/14 09:22:58;;;;;;;;;;;;;;;22.85;56.13;97265.63;4197044;28;5818;-64
2022/05/14 09:25:12;;;;;;;;;;;;;;;22.85;56.32;97266.44;4196166;28;5748;-64
2022/05/14 09:27:23;;;;;;;;;;;;;;;22.86;56.33;97272.66;4197676;28;5805;-64
2022/05/14 09:29:30;;;;;;;;;;;;;;;22.88;55.93;97267.84;4188657;28;5864;-64
2022/05/14 09:31:36;;;;;;;;;;;;;;;22.90;55.93;97262.97;4195820;28;5749;-65
2022/05/14 09:33:44;;;;;;;;;;;;;;;22.91;56.29;97262.72;4197395;28;5788;-64
2022/05/14 09:36:15;;;;;;;;;;;;;;;22.93;56.00;97268.66;4196978;28;5796;-64
2022/05/14 09:38:21;;;;;;;;;;;;;;;22.94;56.05;97264.06;4189931;28;5797;-64
2022/05/14 09:40:30;;;;;;;;;;;;;;;22.96;55.87;97270.00;4197260;28;5840;-64
2022/05/14 09:42:38;;;;;;;;;;;;;;;22.97;55.82;97265.44;4198715;28;5734;-64
2022/05/14 09:44:47;;;;;;;;;;;;;;;22.98;55.82;97269.75;4198871;28;5886;-65
2022/05/14 09:46:52;;;;;;;;;;;;;;;22.98;55.68;97265.16;4186288;28;6982;-64
2022/05/14 09:49:03;;;;;;;;;;;;;;;23.01;55.83;97264.66;4190397;28;5832;-65
2022/05/14 09:51:09;;;;;;;;;;;;;;;23.02;55.82;97262.78;4195932;28;5833;-64
2022/05/14 09:53:12;;;;;;;;;;;;;;;23.02;55.74;97255.50;4194992;28;6471;-64
2022/05/14 09:55:15;;;;;;;;;;;;;;;23.01;55.68;97259.28;4191654;28;5701;-64
2022/05/14 09:57:44;;;;;;;;;;;;;;;23.03;56.09;97261.72;4198634;28;5734;-64
2022/05/14 10:00:06;;;;;;;;;;;;;;;23.05;55.79;97254.97;4200125;28;5800;-65
2022/05/14 10:02:15;;;;;;;;;;;;;;;23.07;55.79;97254.72;4196970;28;5792;-65
2022/05/14 10:04:35;;;;;;;;;;;;;;;23.05;55.92;97254.97;4200321;28;5911;-65
2022/05/14 10:06:45;;;;;;;;;;;;;;;23.03;55.63;97251.72;4200369;28;5099;-65
2022/05/14 10:08:59;;;;;;;;;;;;;;;23.04;55.73;97249.84;4195857;28;6033;-65
2022/05/14 10:11:11;;;;;;;;;;;;;;;23.07;55.82;97246.63;4198058;28;7747;-65
2022/05/14 10:13:23;;;;;;;;;;;;;;;23.10;55.46;97252.28;4199883;28;6594;-65
2022/05/14 10:15:45;;;;;;;;;;;;;;;23.14;55.19;97253.41;4195815;28;5789;-65
2022/05/14 10:18:01;;;;;;;;;;;;;;;23.13;55.43;97249.09;4199607;28;5835;-65
2022/05/14 10:20:29;;;;;;;;;;;;;;;23.13;55.57;97243.69;4199999;28;6514;-65
2022/05/14 10:27:50;;;;;;;;;;;;;;;23.22;55.04;97234.03;4146930;28;6784;-64
2022/05/14 10:30:07;;;;;;;;;;;;;;;23.23;55.18;97232.97;4139326;28;5879;-64
2022/05/14 10:32:13;;;;;;;;;;;;;;;23.26;55.33;97230.81;4146399;28;7848;-65
2022/05/14 10:34:21;;;;;;;;;;;;;;;23.30;55.19;97231.88;4139909;28;5884;-65
2022/05/14 10:36:32;;;;;;;;;;;;;;;23.33;55.16;97228.66;4135511;28;5973;-65
2022/05/14 10:38:46;;;;;;;;;;;;;;;23.34;54.70;97231.13;4139473;28;5885;-65
2022/05/14 10:40:53;;;;;;;;;;;;;;;23.36;54.66;97233.53;4140235;28;5956;-64
2022/05/14 10:43:21;;;;;;;;;;;;;;;23.36;54.62;97233.53;4138434;28;5903;-64
2022/05/14 10:45:32;;;;;;;;;;;;;;;23.35;54.49;97229.22;4143150;28;5949;-65
2022/05/14 10:47:39;;;;;;;;;;;;;;;23.35;54.82;97229.22;4135753;28;5884;-65
2022/05/14 10:49:47;;;;;;;;;;;;;;;23.36;54.78;97220.06;4123858;28;5934;-64
2022/05/14 10:51:52;;;;;;;;;;;;;;;23.35;54.16;97221.94;4143816;28;5118;-64
2022/05/14 10:54:02;;;;;;;;;;;;;;;23.38;54.14;97217.91;4141703;28;6013;-64
2022/05/14 10:56:10;;;;;;;;;;;;;;;23.40;54.29;97221.13;4137163;28;5914;-65
2022/05/14 10:58:35;;;;;;;;;;;;;;;23.40;54.21;97213.84;4142029;28;6193;-64
2022/05/14 11:00:44;;;;;;;;;;;;;;;23.43;54.32;97223.31;4137367;28;5953;-64
2022/05/14 11:03:01;;;;;;;;;;;;;;;23.43;54.08;97209.81;4140330;28;5894;-65
2022/05/14 11:05:05;;;;;;;;;;;;;;;23.46;54.20;97207.41;4190780;28;6693;-74
2022/05/14 11:07:11;;;;;;;;;;;;;;;23.49;54.00;97211.47;4190085;28;5810;-73
2022/05/14 11:09:20;;;;;;;;;;;;;;;23.51;53.83;97207.41;4182467;28;5845;-70
2022/05/14 11:11:26;;;;;;;;;;;;;;;23.57;53.67;97202.84;4184357;28;6278;-66
2022/05/14 11:13:29;;;;;;;;;;;;;;;23.60;53.73;97201.53;4194453;28;5812;-67
2022/05/14 11:15:32;;;;;;;;;;;;;;;23.62;53.99;97202.88;4193770;28;5940;-69
2022/05/14 11:17:39;;;;;;;;;;;;;;;23.62;53.46;97199.38;4198397;28;5879;-68
2022/05/14 11:19:42;;;;;;;;;;;;;;;23.65;53.94;97196.94;4189817;28;5940;-64
2022/05/14 11:21:47;;;;;;;;;;;;;;;23.67;53.55;97202.06;4193699;28;5983;-65
2022/05/14 11:23:56;;;;;;;;;;;;;;;23.67;53.90;97200.22;4191714;28;5801;-66
2022/05/14 11:26:08;;;;;;;;;;;;;;;23.69;53.34;97199.94;4195076;28;5831;-66
2022/05/14 11:28:23;;;;;;;;;;;;;;;23.68;53.62;97196.44;4197096;28;6597;-66
2022/05/14 11:30:33;;;;;;;;;;;;;;;23.69;53.74;97189.97;4192653;28;5805;-64
2022/05/14 11:32:46;;;;;;;;;;;;;;;23.71;53.73;97192.38;4192876;28;6009;-73
2022/05/14 11:34:54;;;;;;;;;;;;;;;23.70;53.29;97190.78;4192001;28;5797;-68
2022/05/14 11:36:58;;;;;;;;;;;;;;;23.69;53.59;97189.97;4197333;28;5799;-72
2022/05/14 11:39:29;;;;;;;;;;;;;;;23.72;53.40;97183.22;4188019;28;5925;-64
2022/05/14 11:41:35;;;;;;;;;;;;;;;23.74;53.17;97175.66;4191049;28;5967;-65
2022/05/14 11:43:49;;;;;;;;;;;;;;;23.77;53.07;97175.91;4188050;28;5805;-63
2022/05/14 11:45:58;;;;;;;;;;;;;;;23.81;53.09;97181.59;4194771;28;5862;-61
2022/05/14 11:48:07;;;;;;;;;;;;;;;23.81;53.05;97177.03;4186666;28;5785;-61
2022/05/14 11:50:16;;;;;;;;;;;;;;;23.85;53.19;97171.06;4190866;28;5793;-63
2022/05/14 11:52:26;;;;;;;;;;;;;;;23.87;53.25;97168.91;4197517;28;5879;-63
2022/05/14 11:54:33;;;;;;;;;;;;;;;23.88;53.36;97167.81;4197759;28;5844;-62
2022/05/14 11:56:44;;;;;;;;;;;;;;;23.90;53.28;97162.97;4190420;28;6513;-63
2022/05/14 11:58:53;;;;;;;;;;;;;;;23.89;53.13;97162.16;4197886;28;5701;-63
2022/05/14 12:00:57;;;;;;;;;;;;;;;23.90;53.19;97166.50;4186605;28;5792;-63
2022/05/14 12:03:10;;;;;;;;;;;;;;;23.92;52.77;97156.25;4187523;28;6571;-63
2022/05/14 12:05:17;;;;;;;;;;;;;;;23.94;53.18;97158.66;4181687;28;5883;-63
2022/05/14 12:07:47;;;;;;;;;;;;;;;23.96;52.93;97151.09;4182979;28;5794;-63
2022/05/14 12:10:04;;;;;;;;;;;;;;;23.99;53.40;97154.06;4193755;28;5323;-63
2022/05/14 12:12:13;;;;;;;;;;;;;;;24.00;53.30;97149.47;4187380;28;5818;-64
2022/05/14 12:14:19;;;;;;;;;;;;;;;24.01;52.86;97142.97;4196686;28;5816;-63
2022/05/14 12:16:27;;;;;;;;;;;;;;;24.01;52.87;97134.88;4196266;28;5809;-64
2022/05/14 12:18:32;;;;;;;;;;;;;;;24.05;53.25;97138.69;4186635;28;5115;-64
2022/05/14 12:20:35;;;;;;;;;;;;;;;24.06;52.91;97132.19;4192649;28;5856;-64
2022/05/14 12:22:38;;;;;;;;;;;;;;;24.07;53.16;97134.63;4197047;28;5896;-64
2022/05/14 12:24:42;;;;;;;;;;;;;;;24.07;52.98;97136.50;4185453;28;5895;-64
2022/05/14 12:26:45;;;;;;;;;;;;;;;24.10;53.03;97135.97;4187726;28;5789;-64
2022/05/14 12:28:48;;;;;;;;;;;;;;;24.10;52.76;97139.47;4183857;28;5806;-63
2022/05/14 12:33:18;;;;;;;;;;;;;;;24.14;52.54;97133.56;4181270;28;5964;-63
2022/05/14 12:35:25;;;;;;;;;;;;;;;24.13;52.58;97124.66;4182207;28;5817;-63
2022/05/14 12:37:36;;;;;;;;;;;;;;;24.11;52.68;97118.69;4180927;28;5794;-63
2022/05/14 12:39:43;;;;;;;;;;;;;;;24.09;52.77;97118.16;4183077;28;6617;-63
2022/05/14 12:41:48;;;;;;;;;;;;;;;24.11;52.18;97114.09;4188002;28;5828;-64
2022/05/14 12:43:51;;;;;;;;;;;;;;;24.13;52.58;97121.13;4189005;28;5854;-64
2022/05/14 12:46:03;;;;;;;;;;;;;;;24.13;52.56;97110.34;4190006;28;5833;-64
2022/05/14 12:48:09;;;;;;;;;;;;;;;24.15;52.34;97108.16;4181446;28;5818;-64
2022/05/14 12:50:20;;;;;;;;;;;;;;;24.17;52.25;97111.41;4181815;28;5986;-64
2022/05/14 12:52:28;;;;;;;;;;;;;;;24.19;52.35;97107.34;4195239;28;5790;-64
2022/05/14 12:54:34;;;;;;;;;;;;;;;24.20;52.11;97108.94;4194732;28;5788;-63
2022/05/14 12:56:37;;;;;;;;;;;;;;;24.22;52.01;97100.56;4181037;28;6401;-63
2022/05/14 12:58:42;;;;;;;;;;;;;;;24.23;51.52;97097.59;4180983;28;5894;-77
2022/05/14 13:00:48;;;;;;;;;;;;;;;24.26;51.57;97091.66;4184540;28;5796;-66
2022/05/14 13:02:55;;;;;;;;;;;;;;;24.29;51.54;97093.81;4184408;28;5801;-66
2022/05/14 13:05:03;;;;;;;;;;;;;;;24.29;51.26;97090.31;4188115;28;5847;-66
2022/05/14 13:07:10;;;;;;;;;;;;;;;24.30;51.67;97087.34;4192479;28;6499;-65
2022/05/14 13:09:23;;;;;;;;;;;;;;;24.31;51.15;97088.97;4197513;28;5794;-66
2022/05/14 13:11:28;;;;;;;;;;;;;;;24.34;50.97;97084.91;4197823;28;5789;-66
2022/05/14 13:13:36;;;;;;;;;;;;;;;24.35;50.68;97083.81;4198483;28;6261;-66
2022/05/14 13:15:42;;;;;;;;;;;;;;;24.36;51.18;97072.75;4201062;28;6506;-66
2022/05/14 13:17:45;;;;;;;;;;;;;;;24.38;50.86;97078.69;4200908;28;5788;-66
2022/05/14 13:19:50;;;;;;;;;;;;;;;24.41;51.03;97071.94;4200995;28;5789;-67
2022/05/14 13:21:55;;;;;;;;;;;;;;;24.44;50.67;97067.84;4200520;28;5842;-67
2022/05/14 13:24:01;;;;;;;;;;;;;;;24.47;50.30;97067.31;4200715;28;6422;-66
2022/05/14 13:26:09;;;;;;;;;;;;;;;24.48;50.12;97061.66;4190954;28;8451;-66
2022/05/14 13:28:19;;;;;;;;;;;;;;;24.50;50.30;97061.38;4183762;28;6632;-66
2022/05/14 13:30:33;;;;;;;;;;;;;;;24.50;50.01;97064.06;4192741;28;5792;-65
2022/05/14 13:32:36;;;;;;;;;;;;;;;24.50;49.98;97056.78;4184534;28;5813;-66
2022/05/14 13:37:11;;;;;;;;;;;;;;;24.51;49.87;97065.69;4189149;28;5830;-65
2022/05/14 13:39:16;;;;;;;;;;;;;;;24.53;49.98;97052.69;4190764;28;5813;-67
2022/05/14 13:41:24;;;;;;;;;;;;;;;24.53;49.77;97058.09;4188535;28;7729;-66
2022/05/14 13:43:31;;;;;;;;;;;;;;;24.55;49.78;97055.94;4183757;28;5809;-66
2022/05/14 13:45:36;;;;;;;;;;;;;;;24.57;49.38;97064.56;4188301;28;5809;-65
2022/05/14 13:47:45;;;;;;;;;;;;;;;24.58;49.62;97055.41;4197454;28;5795;-65
2022/05/14 13:49:54;;;;;;;;;;;;;;;24.59;49.08;97057.81;4184077;28;5765;-65
2022/05/14 13:52:01;;;;;;;;;;;;;;;24.62;48.93;97053.75;4186364;28;5740;-65
2022/05/14 13:54:14;;;;;;;;;;;;;;;24.64;48.98;97051.56;4187387;28;5918;-68
2022/05/14 13:56:32;;;;;;;;;;;;;;;24.65;48.61;97047.78;4138622;28;14769;-69
2022/05/14 13:58:37;;;;;;;;;;;;;;;24.67;49.10;97048.31;4110426;28;60520;-68
2022/05/14 14:00:53;;;;;;;;;;;;;;;24.69;48.71;97043.47;4159541;28;6585;-68
2022/05/14 14:03:01;;;;;;;;;;;;;;;24.69;48.57;97035.34;4163811;28;5848;-69
2022/05/14 14:05:07;;;;;;;;;;;;;;;24.71;48.65;97037.78;4158579;28;5901;-67
2022/05/14 14:07:12;;;;;;;;;;;;;;;24.71;48.37;97038.56;4154845;28;5883;-68
2022/05/14 14:09:15;;;;;;;;;;;;;;;24.72;48.07;97029.38;4163039;28;5861;-69
2022/05/14 14:11:22;;;;;;;;;;;;;;;24.74;48.08;97035.31;4163937;28;5921;-65
2022/05/14 14:13:27;;;;;;;;;;;;;;;24.76;47.48;97038.53;4161778;28;5843;-65
2022/05/14 14:15:30;;;;;;;;;;;;;;;24.76;47.37;97035.84;4163670;28;5984;-65
2022/05/14 14:17:33;;;;;;;;;;;;;;;24.77;47.47;97037.44;4165246;28;5888;-65
2022/05/14 14:19:36;;;;;;;;;;;;;;;24.76;47.26;97035.84;4159975;28;5998;-67
2022/05/14 14:21:39;;;;;;;;;;;;;;;24.76;46.94;97026.91;4166423;28;6413;-65
2022/05/14 14:23:46;;;;;;;;;;;;;;;24.76;46.58;97025.03;4162403;28;6035;-64
2022/05/14 14:25:50;;;;;;;;;;;;;;;24.77;46.24;97020.44;4164307;28;6222;-75
2022/05/14 14:27:53;;;;;;;;;;;;;;;24.78;46.27;97022.84;4167776;28;6533;-71
2022/05/14 14:29:58;;;;;;;;;;;;;;;24.81;45.95;97025.00;4166698;28;6980;-73
2022/05/14 14:32:01;;;;;;;;;;;;;;;24.83;45.84;97020.13;4167411;28;5832;-74
2022/05/14 14:34:04;;;;;;;;;;;;;;;24.86;46.03;97016.06;4159922;28;5808;-75
2022/05/14 14:36:09;;;;;;;;;;;;;;;24.89;46.02;97007.38;4161219;28;5846;-75
2022/05/14 14:38:12;;;;;;;;;;;;;;;24.89;45.95;97000.06;4163858;28;5912;-68
2022/05/14 14:40:16;;;;;;;;;;;;;;;24.89;45.38;97008.19;4164690;28;5770;-71
2022/05/14 14:42:19;;;;;;;;;;;;;;;24.89;45.63;97002.78;4168033;28;5828;-69
2022/05/14 14:44:22;;;;;;;;;;;;;;;24.92;45.27;97001.44;4170702;28;5769;-69
2022/05/14 14:46:27;;;;;;;;;;;;;;;24.92;45.33;97001.44;4178069;28;5790;-70
2022/05/14 14:48:33;;;;;;;;;;;;;;;24.92;44.82;96999.53;4167726;28;5098;-71
2022/05/14 14:50:36;;;;;;;;;;;;;;;24.92;44.61;96991.41;4167037;28;5748;-70
2022/05/14 14:52:39;;;;;;;;;;;;;;;24.91;44.47;97000.59;4163588;28;6190;-71
2022/05/14 14:54:42;;;;;;;;;;;;;;;24.91;44.49;97000.59;4165971;28;5797;-69
2022/05/14 14:56:44;;;;;;;;;;;;;;;24.92;44.44;97001.44;4163388;28;5742;-69
2022/05/14 14:58:47;;;;;;;;;;;;;;;24.94;44.21;96999.25;4163288;28;6728;-69
2022/05/14 15:00:52;;;;;;;;;;;;;;;24.96;44.14;96997.06;4160402;28;5669;-69
2022/05/14 15:03:01;;;;;;;;;;;;;;;24.96;43.63;96987.06;4163528;28;5804;-69
2022/05/14 15:05:08;;;;;;;;;;;;;;;24.96;43.55;96995.16;4165268;28;5752;-70
2022/05/14 15:07:11;;;;;;;;;;;;;;;24.94;43.20;96983.03;4165817;28;5725;-68
2022/05/14 15:09:15;;;;;;;;;;;;;;;24.97;42.94;96994.06;4181463;28;5658;-69
2022/05/14 15:11:20;;;;;;;;;;;;;;;24.97;43.02;96994.06;4167639;28;5825;-68
2022/05/14 15:13:27;;;;;;;;;;;;;;;24.99;42.51;96985.69;4165329;28;5741;-69
2022/05/14 15:15:31;;;;;;;;;;;;;;;25.01;42.14;96983.53;4167220;28;5749;-67
2022/05/14 15:17:34;;;;;;;;;;;;;;;25.03;42.37;96980.53;4163335;28;5878;-67
2022/05/14 15:19:38;;;;;;;;;;;;;;;25.02;42.15;96979.72;4166499;28;7772;-66
2022/05/14 15:21:41;;;;;;;;;;;;;;;25.03;42.59;96985.94;4164013;28;5722;-68
2022/05/14 15:23:44;;;;;;;;;;;;;;;25.02;41.98;96987.84;4161144;28;5758;-67
2022/05/14 15:25:47;;;;;;;;;;;;;;;25.04;42.30;96991.09;4164489;28;5833;-67
2022/05/14 15:27:50;;;;;;;;;;;;;;;25.07;41.93;96984.31;4167702;28;5752;-68
2022/05/14 15:29:53;;;;;;;;;;;;;;;25.08;41.94;96980.53;4163010;28;5981;-70
2022/05/14 15:32:15;;;;;;;;;;;;;;;25.10;41.89;96981.84;4160174;28;7461;-69
2022/05/14 15:34:19;;;;;;;;;;;;;;;25.12;42.09;96978.84;4163146;28;5751;-68
2022/05/14 15:36:24;;;;;;;;;;;;;;;25.12;41.89;96968.84;4161122;28;5938;-69
2022/05/14 15:38:26;;;;;;;;;;;;;;;25.12;42.23;96974.25;4163424;28;6531;-68
2022/05/14 15:40:31;;;;;;;;;;;;;;;25.12;42.21;96974.25;4167050;28;5085;-68
2022/05/14 15:42:38;;;;;;;;;;;;;;;25.13;41.92;96972.34;4163154;28;5741;-68
2022/05/14 15:44:47;;;;;;;;;;;;;;;25.16;41.36;96975.31;4167209;28;5741;-68
2022/05/14 15:46:53;;;;;;;;;;;;;;;25.17;41.57;96970.72;4165252;28;5745;-68
2022/05/14 15:49:02;;;;;;;;;;;;;;;25.16;41.57;96975.31;4162792;28;5824;-67
2022/05/14 15:51:10;;;;;;;;;;;;;;;25.17;41.54;96978.84;4165321;28;5883;-67
2022/05/14 15:53:19;;;;;;;;;;;;;;;25.17;41.13;96974.22;4163311;28;5737;-66
2022/05/14 15:55:25;;;;;;;;;;;;;;;25.18;40.95;96966.94;4162518;28;5673;-66
2022/05/14 15:57:28;;;;;;;;;;;;;;;25.19;40.95;96973.94;4160649;28;5917;-68
2022/05/14 15:59:31;;;;;;;;;;;;;;;25.19;41.18;96976.66;4161751;28;5797;-68
2022/05/14 16:01:35;;;;;;;;;;;;;;;25.19;40.73;96969.34;4165243;28;5750;-68
2022/05/14 16:03:39;;;;;;;;;;;;;;;25.21;40.67;96969.06;4165016;28;5665;-68
2022/05/14 16:05:42;;;;;;;;;;;;;;;25.23;40.67;96969.56;4162362;28;5725;-69
2022/05/14 16:07:46;;;;;;;;;;;;;;;25.26;40.78;96963.63;4166766;28;6427;-68
2022/05/14 16:17:03;;;;;;;;;;;;;;;25.32;40.54;96954.34;4126342;28;5846;-68
2022/05/14 16:19:07;;;;;;;;;;;;;;;25.34;40.50;96954.06;4133476;28;5785;-68
2022/05/14 16:21:12;;;;;;;;;;;;;;;25.32;40.29;96946.25;4129940;28;5874;-69
2022/05/14 16:23:15;;;;;;;;;;;;;;;25.32;40.22;96954.34;4116299;28;5730;-68
2022/05/14 16:25:20;;;;;;;;;;;;;;;25.31;40.24;96952.75;4131347;28;5726;-69
2022/05/14 16:27:23;;;;;;;;;;;;;;;25.30;40.02;96956.53;4131118;28;5747;-69
2022/05/14 16:29:26;;;;;;;;;;;;;;;25.30;40.22;96961.97;4131220;28;5714;-67
2022/05/14 16:31:31;;;;;;;;;;;;;;;25.29;39.95;96956.84;4129808;28;5730;-67
2022/05/14 16:33:34;;;;;;;;;;;;;;;25.29;39.82;96957.63;4130095;28;5803;-68
2022/05/14 16:35:39;;;;;;;;;;;;;;;25.29;39.81;96946.00;4132219;28;5963;-69
2022/05/14 16:37:42;;;;;;;;;;;;;;;25.30;39.77;96953.84;4131458;28;5853;-70
2022/05/14 16:39:45;;;;;;;;;;;;;;;25.29;39.62;96957.63;4130903;28;5734;-70